createdAt,value
2018-09-18T05:06:00.432Z,69.18
2018-09-18T05:11:03.767Z,69.47
2018-09-18T05:16:07.114Z,69.64
2018-09-18T05:21:10.462Z,70.03
2018-09-18T05:26:13.783Z,69.96
2018-09-18T05:31:18.889Z,69.77
2018-09-18T05:36:26.054Z,69.75
2018-09-18T05:41:29.391Z,69.77
2018-09-18T05:46:35.555Z,70.06
2018-09-18T05:51:38.898Z,69.70
2018-09-18T05:56:54.409Z,69.85
2018-09-18T06:01:57.766Z,70.11
2018-09-18T06:07:01.109Z,70.32
2018-09-18T06:12:05.210Z,70.47
2018-09-18T06:17:08.547Z,70.69
2018-09-18T06:22:12.655Z,70.61
2018-09-18T06:27:15.990Z,70.48
2018-09-18T06:32:19.322Z,70.23
2018-09-18T06:37:22.663Z,70.20
2018-09-18T06:42:26.323Z,70.02
2018-09-18T06:47:30.347Z,70.14
2018-09-18T06:52:33.681Z,69.96
2018-09-18T06:57:37.780Z,69.85
2018-09-18T07:02:41.105Z,69.36
2018-09-18T07:07:44.439Z,68.98
2018-09-18T07:12:47.778Z,68.84
2018-09-18T07:17:51.155Z,68.57
2018-09-18T07:22:54.442Z,68.12
2018-09-18T07:27:57.772Z,67.90
2018-09-18T07:33:01.102Z,67.52
2018-09-18T07:38:05.198Z,67.16
2018-09-18T07:43:08.535Z,66.63
2018-09-18T07:48:12.636Z,66.77
2018-09-18T07:53:15.971Z,65.65
2018-09-18T07:58:19.324Z,65.48
2018-09-18T08:03:22.659Z,64.42
2018-09-18T08:08:26.017Z,64.70
2018-09-18T08:13:30.107Z,64.02
2018-09-18T08:18:33.446Z,63.90
2018-09-18T08:23:36.788Z,63.85
2018-09-18T08:28:40.122Z,63.46
2018-09-18T08:33:43.446Z,62.33
2018-09-18T08:38:46.774Z,62.69
2018-09-18T08:43:50.122Z,62.40
2018-09-18T08:48:53.452Z,60.31
2018-09-18T08:53:57.561Z,59.72
2018-09-18T08:59:00.916Z,60.29
2018-09-18T09:04:04.244Z,58.51
2018-09-18T09:09:07.614Z,58.48
2018-09-18T09:14:10.927Z,56.35
2018-09-18T09:19:15.028Z,56.77
2018-09-18T09:24:18.364Z,57.39
2018-09-18T09:29:21.739Z,56.86
2018-09-18T09:34:25.068Z,55.75
2018-09-18T09:39:28.455Z,55.75
2018-09-18T09:44:31.792Z,55.15
2018-09-18T09:49:35.485Z,53.88
2018-09-18T09:54:39.036Z,53.97
2018-09-18T09:59:42.380Z,52.79
2018-09-18T10:04:45.723Z,52.96
2018-09-18T10:09:49.071Z,52.34
2018-09-18T10:14:52.460Z,52.54
2018-09-18T10:19:55.803Z,52.00
2018-09-18T10:24:59.269Z,52.31
2018-09-18T10:30:02.494Z,52.66
2018-09-18T10:35:05.831Z,52.36
2018-09-18T10:40:09.194Z,52.33
2018-09-18T10:45:12.556Z,52.22
2018-09-18T10:50:15.947Z,52.01
2018-09-18T10:55:19.303Z,51.25
2018-09-18T11:00:22.674Z,51.25
2018-09-18T11:05:26.017Z,51.83
2018-09-18T11:10:29.380Z,51.36
2018-09-18T11:15:32.854Z,50.84
2018-09-18T11:20:36.207Z,51.27
2018-09-18T11:25:39.587Z,51.32
2018-09-18T11:30:42.950Z,51.09
2018-09-18T11:35:47.316Z,50.87
2018-09-18T11:40:50.645Z,50.41
2018-09-18T11:46:10.548Z,50.20
2018-09-18T11:51:13.887Z,49.29
2018-09-18T11:56:20.854Z,46.52
2018-09-18T12:01:24.191Z,46.29
2018-09-18T12:06:50.952Z,45.71
2018-09-18T12:11:55.046Z,44.76
2018-09-18T12:16:58.410Z,44.30
2018-09-18T12:22:01.727Z,44.82
2018-09-18T12:27:05.058Z,44.28
2018-09-18T12:32:08.407Z,43.64
2018-09-18T12:37:11.744Z,42.04
2018-09-18T12:42:15.282Z,42.69
2018-09-18T12:47:18.491Z,42.55
2018-09-18T12:52:21.828Z,42.58
2018-09-18T12:57:25.315Z,41.27
2018-09-18T13:02:29.291Z,39.82
2018-09-18T13:07:32.663Z,40.15
2018-09-18T13:12:36.746Z,39.83
2018-09-18T13:17:40.107Z,38.65
2018-09-18T13:22:44.212Z,38.70
2018-09-18T13:27:48.344Z,38.12
2018-09-18T13:32:51.676Z,38.07
2018-09-18T13:37:55.030Z,36.62
2018-09-18T13:42:58.397Z,36.84
2018-09-18T13:48:01.739Z,36.90
2018-09-18T13:53:05.087Z,36.27
2018-09-18T13:58:08.455Z,36.58
2018-09-18T14:03:11.796Z,35.61
2018-09-18T14:08:15.244Z,35.89
2018-09-18T14:13:18.601Z,35.28
2018-09-18T14:18:21.944Z,34.71
2018-09-18T14:23:25.285Z,34.94
2018-09-18T14:28:29.387Z,34.42
2018-09-18T14:33:32.730Z,33.14
2018-09-18T14:38:36.826Z,33.14
2018-09-18T14:43:40.159Z,35.02
2018-09-18T14:48:45.936Z,33.19
2018-09-18T14:53:50.040Z,32.46
2018-09-18T14:58:53.372Z,32.87
2018-09-18T15:03:56.724Z,33.48
2018-09-18T15:09:00.057Z,32.52
2018-09-18T15:14:03.392Z,32.22
2018-09-18T15:19:06.721Z,30.69
2018-09-18T15:24:10.075Z,32.10
2018-09-18T15:29:13.423Z,32.01
2018-09-18T15:34:16.780Z,33.18
2018-09-18T15:39:20.877Z,33.91
2018-09-18T15:44:24.308Z,33.27
2018-09-18T15:49:27.631Z,33.58
2018-09-18T15:54:31.744Z,33.43
2018-09-18T15:59:35.076Z,33.56
2018-09-18T16:04:39.284Z,35.76
2018-09-18T16:09:42.729Z,35.33
2018-09-18T16:14:46.108Z,35.91
2018-09-18T16:19:50.239Z,37.34
2018-09-18T16:24:53.604Z,37.57
2018-09-18T16:29:58.316Z,38.74
2018-09-18T16:35:01.654Z,39.05
2018-09-18T16:40:05.021Z,39.78
2018-09-18T16:45:08.346Z,40.96
2018-09-18T16:50:11.696Z,41.47
2018-09-18T16:55:15.956Z,43.38
2018-09-18T17:00:19.190Z,43.70
2018-09-18T17:05:22.519Z,44.18
2018-09-18T17:10:25.861Z,44.25
2018-09-18T17:15:29.202Z,43.82
2018-09-18T17:20:32.551Z,43.95
2018-09-18T17:25:36.882Z,43.42
2018-09-18T17:30:40.311Z,43.49
2018-09-18T17:35:43.677Z,44.00
2018-09-18T17:40:46.969Z,46.19
2018-09-18T17:46:04.690Z,47.02
2018-09-18T17:51:08.040Z,48.34
2018-09-18T17:56:18.431Z,49.49
2018-09-18T18:01:21.789Z,50.25
2018-09-18T18:06:37.638Z,51.16
2018-09-18T18:11:41.044Z,52.97
2018-09-18T18:16:52.047Z,54.06
2018-09-18T18:21:55.371Z,54.36
2018-09-18T18:32:09.284Z,56.65
2018-09-18T18:37:12.615Z,56.37
2018-09-18T18:42:16.729Z,55.87
2018-09-18T18:47:20.088Z,55.57
2018-09-18T18:52:24.226Z,54.98
2018-09-18T18:57:27.555Z,54.38
2018-09-18T19:02:31.034Z,54.11
2018-09-18T19:07:34.510Z,53.32
2018-09-18T19:12:38.067Z,52.93
2018-09-18T19:17:41.653Z,52.51
2018-09-18T19:22:45.376Z,52.57
2018-09-18T19:27:48.740Z,52.38
2018-09-18T19:32:52.589Z,52.31
2018-09-18T19:37:55.855Z,52.71
2018-09-18T19:42:59.213Z,53.44
2018-09-18T19:48:02.589Z,55.03
2018-09-18T19:53:06.738Z,54.34
2018-09-18T19:58:10.211Z,54.93
2018-09-18T20:03:13.866Z,54.88
2018-09-18T20:08:17.971Z,54.21
2018-09-18T20:13:21.339Z,53.97
2018-09-18T20:18:25.090Z,53.63
2018-09-18T20:23:28.431Z,53.80
2018-09-18T20:28:32.113Z,53.89
2018-09-18T20:33:35.736Z,53.96
2018-09-18T20:38:39.443Z,54.20
2018-09-18T20:43:42.764Z,54.20
2018-09-18T20:48:46.107Z,53.78
2018-09-18T20:53:50.216Z,53.48
2018-09-18T20:58:53.566Z,53.94
2018-09-18T21:03:57.676Z,53.88
2018-09-18T21:09:01.019Z,54.03
2018-09-18T21:14:05.151Z,54.59
2018-09-18T21:19:08.477Z,55.22
2018-09-18T21:24:11.824Z,54.81
2018-09-18T21:29:15.163Z,54.91
2018-09-18T21:34:18.495Z,55.74
2018-09-18T21:39:22.590Z,55.84
2018-09-18T21:44:26.940Z,55.82
2018-09-18T21:49:30.281Z,56.12
2018-09-18T21:54:33.616Z,62.55
2018-09-18T21:59:36.950Z,65.03
2018-09-18T22:05:05.198Z,64.55
2018-09-18T22:10:08.541Z,66.11
2018-09-18T22:15:12.280Z,66.22
2018-09-18T22:20:15.649Z,65.56
2018-09-18T22:25:19.874Z,65.63
